Time;durP1;ratioP1;P1;durP2;ratioP2;P2;SDS_P1;SDS_P2;PMS_P1;PMS_P2;Temp;Humidity;BMP_temperature;BMP_pressure;BME280_temperature;BME280_humidity;BME280_pressure;Samples;Min_cycle;Max_cycle;Signal;HPM_P1;HPM_P2
2024/03/22 00:00:04;;;;;;;32.00;20.20;;;;;;;9.63;82.40;100012.45;217700;1260;141053;-71
2024/03/22 00:05:08;;;;;;;22.40;15.80;;;;;;;9.62;82.57;100013.61;217603;1259;141233;-71
2024/03/22 00:10:13;;;;;;;27.80;18.70;;;;;;;9.59;82.73;100007.05;218966;1256;141736;-71
2024/03/22 00:15:21;;;;;;;45.70;27.60;;;;;;;9.58;82.89;100005.95;218092;1256;140411;-71
2024/03/22 00:20:25;;;;;;;37.70;24.70;;;;;;;9.56;83.04;99997.41;217675;1260;142134;-71
2024/03/22 00:25:28;;;;;;;38.30;24.80;;;;;;;9.57;83.26;99998.11;217540;1259;139839;-71
2024/03/22 00:30:31;;;;;;;25.20;18.20;;;;;;;9.59;83.41;99997.52;217603;1260;140602;-72
2024/03/22 00:35:34;;;;;;;29.30;16.60;;;;;;;9.57;83.48;99993.80;217579;1260;140548;-70
2024/03/22 00:40:38;;;;;;;27.70;17.30;;;;;;;9.55;83.54;99987.80;217593;1257;139879;-71
2024/03/22 00:45:41;;;;;;;28.20;18.20;;;;;;;9.54;83.72;99985.11;217506;1257;140115;-71
2024/03/22 00:50:45;;;;;;;24.50;16.20;;;;;;;9.53;83.81;99982.49;218037;1256;141026;-71
2024/03/22 00:55:51;;;;;;;27.70;18.10;;;;;;;9.53;83.85;99985.30;217767;1260;140862;-71
2024/03/22 01:00:55;;;;;;;26.70;17.50;;;;;;;9.51;83.88;99986.05;217774;1257;140003;-71
2024/03/22 01:05:58;;;;;;;31.70;17.40;;;;;;;9.50;84.02;99985.48;217743;1256;140264;-70
2024/03/22 01:11:02;;;;;;;23.30;16.10;;;;;;;9.49;83.95;99984.64;217761;1260;139508;-71
2024/03/22 01:16:09;;;;;;;28.90;16.60;;;;;;;9.47;83.96;99984.88;217441;1259;140490;-71
2024/03/22 01:21:13;;;;;;;29.40;14.30;;;;;;;9.44;83.91;99985.08;218024;1258;140649;-71
2024/03/22 01:26:16;;;;;;;17.70;10.60;;;;;;;9.41;83.88;99986.37;217699;1257;139807;-70
2024/03/22 01:31:20;;;;;;;17.60;11.40;;;;;;;9.38;83.80;99987.34;217852;1256;140973;-71
2024/03/22 01:36:23;;;;;;;17.80;10.80;;;;;;;9.35;83.72;99993.30;217483;1256;140555;-72
2024/03/22 01:41:26;;;;;;;17.80;11.20;;;;;;;9.28;83.66;99988.30;218474;1257;141249;-71
2024/03/22 01:46:30;;;;;;;18.50;12.10;;;;;;;9.20;83.57;99988.79;217842;1260;140574;-71
2024/03/22 01:51:33;;;;;;;21.10;13.10;;;;;;;9.18;83.82;99984.89;217663;1257;140270;-69
2024/03/22 01:56:38;;;;;;;18.00;13.10;;;;;;;9.18;83.94;99986.44;218145;1258;140196;-71
2024/03/22 02:01:42;;;;;;;21.90;14.00;;;;;;;9.18;84.02;99980.70;217551;1257;140858;-71
2024/03/22 02:06:45;;;;;;;23.00;13.40;;;;;;;9.20;84.11;99975.89;217601;1256;140124;-71
2024/03/22 02:11:50;;;;;;;18.20;13.10;;;;;;;9.19;84.14;99973.65;217732;1256;140498;-71
2024/03/22 02:16:52;;;;;;;18.10;11.80;;;;;;;9.19;84.10;99976.77;217475;1257;140554;-71
2024/03/22 02:21:56;;;;;;;16.50;11.80;;;;;;;9.19;84.22;99969.98;217592;1256;140055;-70
2024/03/22 02:26:59;;;;;;;21.30;13.30;;;;;;;9.17;84.20;99968.45;217680;1258;140993;-72
2024/03/22 02:32:03;;;;;;;23.30;13.30;;;;;;;9.15;84.17;99966.05;217780;1256;140174;-71
2024/03/22 02:37:06;;;;;;;17.10;10.10;;;;;;;9.11;84.28;99965.60;217433;1257;142095;-71
2024/03/22 02:42:09;;;;;;;13.50;9.70;;;;;;;9.07;84.47;99958.52;217489;1260;139845;-71
2024/03/22 02:47:15;;;;;;;15.10;10.00;;;;;;;9.03;84.53;99960.31;217436;1259;139471;-71
2024/03/22 02:52:18;;;;;;;21.50;11.30;;;;;;;8.99;84.60;99958.30;217543;1257;160589;-71
2024/03/22 02:57:21;;;;;;;18.30;11.30;;;;;;;8.95;84.65;99959.32;217558;1260;140267;-71
2024/03/22 03:02:24;;;;;;;11.60;6.90;;;;;;;8.94;84.66;99958.75;217506;1256;161500;-71
2024/03/22 03:07:28;;;;;;;11.90;7.90;;;;;;;8.92;84.63;99960.20;217623;1256;141139;-71
2024/03/22 03:12:32;;;;;;;13.00;9.90;;;;;;;8.89;84.74;99961.45;218730;1257;141799;-71
2024/03/22 03:17:36;;;;;;;15.30;9.90;;;;;;;8.88;84.59;99960.19;217686;1256;151213;-71
2024/03/22 03:22:42;;;;;;;12.30;8.70;;;;;;;8.89;84.62;99966.27;218149;1257;140834;-71
2024/03/22 03:27:45;;;;;;;10.10;7.70;;;;;;;8.89;84.51;99965.38;218447;1256;140241;-71
2024/03/22 03:32:48;;;;;;;9.80;7.30;;;;;;;8.89;84.49;99973.77;218641;1257;139021;-71
2024/03/22 03:37:51;;;;;;;7.30;5.80;;;;;;;8.87;84.43;99970.05;217666;1257;140159;-71
2024/03/22 03:42:53;;;;;;;12.20;6.20;;;;;;;8.86;84.07;99969.38;218370;1256;139622;-70
2024/03/22 03:47:59;;;;;;;11.70;7.20;;;;;;;8.85;84.25;99965.36;217872;1260;140632;-71
2024/03/22 03:53:02;;;;;;;7.30;5.40;;;;;;;8.80;84.27;99961.88;217501;1259;139881;-71
2024/03/22 03:58:07;;;;;;;11.70;6.70;;;;;;;8.76;83.94;99956.39;217671;1260;140442;-71
2024/03/22 04:03:10;;;;;;;7.70;6.40;;;;;;;8.74;83.96;99959.59;217890;1260;140700;-71
2024/03/22 04:08:14;;;;;;;8.10;5.30;;;;;;;8.73;84.01;99955.95;217839;1257;140519;-71
2024/03/22 04:13:16;;;;;;;7.90;6.00;;;;;;;8.72;84.09;99951.67;217649;1257;140072;-69
2024/03/22 04:18:20;;;;;;;11.40;6.50;;;;;;;8.71;84.25;99957.04;218181;1257;140650;-70
2024/03/22 04:23:23;;;;;;;9.40;5.90;;;;;;;8.71;84.24;99956.01;217908;1257;139862;-71
2024/03/22 04:28:30;;;;;;;9.10;7.90;;;;;;;8.73;84.38;99948.88;217534;1257;140053;-71
2024/03/22 04:33:34;;;;;;;10.30;7.00;;;;;;;8.73;84.18;99953.09;217996;1257;140359;-71
2024/03/22 04:38:38;;;;;;;9.40;6.40;;;;;;;8.69;83.98;99952.42;217952;1259;140456;-71
2024/03/22 04:43:41;;;;;;;8.60;6.60;;;;;;;8.65;83.96;99948.45;217945;1257;140268;-71
2024/03/22 04:48:44;;;;;;;11.20;7.40;;;;;;;8.63;84.21;99944.62;217512;1257;140235;-71
2024/03/22 04:53:47;;;;;;;7.70;5.40;;;;;;;8.64;84.36;99943.71;218453;1256;140623;-71
2024/03/22 04:58:50;;;;;;;10.90;7.30;;;;;;;8.65;84.09;99945.23;218869;1257;141232;-71
2024/03/22 05:03:54;;;;;;;12.00;7.20;;;;;;;8.65;84.19;99946.60;217616;1257;140544;-69
2024/03/22 05:08:58;;;;;;;10.90;7.60;;;;;;;8.65;84.05;99951.23;217606;1257;140437;-71
2024/03/22 05:14:03;;;;;;;10.40;7.10;;;;;;;8.66;84.26;99955.93;217583;1260;139936;-72
2024/03/22 05:19:06;;;;;;;6.50;5.40;;;;;;;8.65;83.91;99962.44;220196;1256;139875;-72
2024/03/22 05:24:09;;;;;;;10.70;8.20;;;;;;;8.64;83.90;99962.73;217851;1259;140765;-72
2024/03/22 05:29:11;;;;;;;7.50;6.80;;;;;;;8.64;83.76;99968.08;217648;1259;140972;-71
2024/03/22 05:34:14;;;;;;;9.00;6.40;;;;;;;8.65;84.11;99977.69;217664;1256;140338;-71
2024/03/22 05:39:17;;;;;;;9.30;6.80;;;;;;;8.64;84.23;99978.02;217881;1256;140037;-71
2024/03/22 05:44:23;;;;;;;10.80;6.60;;;;;;;8.64;83.91;99977.86;217646;1257;140554;-72
2024/03/22 05:49:26;;;;;;;6.00;5.30;;;;;;;8.64;84.19;99979.00;218991;1256;140701;-72
2024/03/22 05:54:29;;;;;;;7.80;5.40;;;;;;;8.64;84.01;99972.70;217736;1259;140183;-73
2024/03/22 05:59:33;;;;;;;11.70;7.10;;;;;;;8.66;84.21;99970.40;218583;1256;140577;-75
2024/03/22 06:04:36;;;;;;;12.30;6.60;;;;;;;8.67;84.16;99968.67;217872;1259;140890;-71
2024/03/22 06:09:46;;;;;;;12.40;8.30;;;;;;;8.68;83.87;99966.79;217537;1256;140453;-72
2024/03/22 06:14:50;;;;;;;10.70;6.80;;;;;;;8.68;84.13;99954.32;217782;1260;141129;-70
2024/03/22 06:19:53;;;;;;;10.80;6.60;;;;;;;8.73;84.29;99958.77;217426;1260;140704;-73
2024/03/22 06:24:57;;;;;;;7.80;5.40;;;;;;;8.78;84.17;99956.38;217587;1256;139569;-71
2024/03/22 06:29:59;;;;;;;9.30;7.50;;;;;;;8.78;84.10;99956.45;217903;1260;141926;-71
2024/03/22 06:35:05;;;;;;;9.70;8.70;;;;;;;8.78;83.93;99952.94;217434;1260;140416;-71
2024/03/22 06:40:09;;;;;;;12.10;7.30;;;;;;;8.81;84.11;99955.05;217618;1260;139256;-72
2024/03/22 06:45:12;;;;;;;10.80;7.30;;;;;;;8.79;84.08;99956.95;217510;1256;139980;-72
2024/03/22 06:50:14;;;;;;;13.70;7.40;;;;;;;8.75;84.28;99959.59;217619;1257;141948;-72
2024/03/22 06:55:17;;;;;;;8.40;6.80;;;;;;;8.76;84.10;99956.96;217501;1259;140424;-72
2024/03/22 07:00:20;;;;;;;12.90;7.90;;;;;;;8.73;84.27;99960.17;217565;1261;140481;-72
2024/03/22 07:05:22;;;;;;;15.10;9.20;;;;;;;8.72;84.32;99963.33;218278;1257;139683;-74
2024/03/22 07:10:27;;;;;;;12.50;9.70;;;;;;;8.70;84.13;99967.51;217401;1257;140687;-71
2024/03/22 07:15:32;;;;;;;19.50;13.10;;;;;;;8.63;84.17;99973.70;217258;1260;140531;-72
2024/03/22 07:20:36;;;;;;;20.70;12.90;;;;;;;8.54;83.99;99975.90;218585;1256;139832;-72
2024/03/22 07:25:42;;;;;;;19.20;13.90;;;;;;;8.50;84.04;99970.66;217524;1256;140360;-74
2024/03/22 07:30:45;;;;;;;18.10;13.00;;;;;;;8.50;84.03;99970.82;217356;1257;142136;-72
2024/03/22 07:35:47;;;;;;;16.60;12.20;;;;;;;8.47;84.12;99971.48;217439;1256;140542;-71
2024/03/22 07:40:51;;;;;;;15.90;10.10;;;;;;;8.42;83.89;99968.70;217499;1260;140967;-71
2024/03/22 07:45:54;;;;;;;14.50;11.00;;;;;;;8.40;83.86;99974.64;217908;1256;140073;-71
2024/03/22 07:51:01;;;;;;;17.00;11.00;;;;;;;8.38;83.68;99972.16;217494;1259;140750;-72
2024/03/22 07:56:05;;;;;;;17.40;11.70;;;;;;;8.35;83.65;99965.19;217465;1256;140628;-73
2024/03/22 08:01:08;;;;;;;11.60;9.60;;;;;;;8.37;83.72;99960.40;217963;1256;139579;-71
2024/03/22 08:06:13;;;;;;;16.80;9.50;;;;;;;8.38;83.68;99959.08;217473;1258;139280;-71
2024/03/22 08:11:16;;;;;;;14.20;9.90;;;;;;;8.45;83.56;99955.20;217490;1257;139623;-71
2024/03/22 08:16:20;;;;;;;12.60;9.40;;;;;;;8.55;83.79;99949.90;217738;1260;139488;-71
2024/03/22 08:21:25;;;;;;;20.60;13.80;;;;;;;8.64;83.65;99942.90;217447;1261;139161;-72
2024/03/22 08:26:28;;;;;;;24.10;13.60;;;;;;;8.69;83.64;99948.39;217523;1257;139753;-71
2024/03/22 08:31:31;;;;;;;17.30;13.20;;;;;;;8.69;83.60;99948.71;217589;1260;141170;-72
2024/03/22 08:36:34;;;;;;;21.30;12.40;;;;;;;8.70;83.38;99947.89;217301;1256;139913;-72
2024/03/22 08:41:37;;;;;;;16.30;11.30;;;;;;;8.80;83.53;99938.41;217379;1258;140187;-73
2024/03/22 08:46:40;;;;;;;19.10;13.60;;;;;;;8.91;83.82;99935.23;217587;1259;140714;-75
2024/03/22 08:51:43;;;;;;;16.00;12.20;;;;;;;8.93;83.54;99928.70;217518;1257;139918;-71
2024/03/22 08:56:47;;;;;;;12.40;9.20;;;;;;;9.01;83.55;99926.05;217785;1257;140134;-73
2024/03/22 09:01:51;;;;;;;17.90;11.30;;;;;;;9.32;83.71;99924.95;219024;1256;139894;-75
2024/03/22 09:06:55;;;;;;;16.50;11.00;;;;;;;9.63;83.58;99915.57;217805;1256;140705;-73
2024/03/22 09:11:58;;;;;;;17.90;11.80;;;;;;;9.81;83.30;99911.36;217465;1261;139962;-72
2024/03/22 09:17:01;;;;;;;19.10;12.70;;;;;;;9.87;82.69;99904.57;217370;1257;141144;-71
2024/03/22 09:22:04;;;;;;;16.30;10.60;;;;;;;9.80;82.20;99901.80;218187;1259;141946;-72
2024/03/22 09:27:10;;;;;;;20.90;12.80;;;;;;;9.80;82.06;99903.13;217246;1260;140770;-73
2024/03/22 09:32:13;;;;;;;15.70;11.20;;;;;;;9.89;82.19;99899.21;217428;1257;141133;-70
2024/03/22 09:37:15;;;;;;;16.80;11.10;;;;;;;10.03;81.95;99898.16;217423;1256;140326;-74
2024/03/22 09:42:18;;;;;;;12.90;9.60;;;;;;;10.20;81.75;99892.95;217374;1257;139936;-73
2024/03/22 09:47:21;;;;;;;15.00;9.30;;;;;;;10.36;81.45;99884.26;217036;1256;140862;-74
2024/03/22 09:52:24;;;;;;;12.20;8.70;;;;;;;10.36;80.93;99887.36;217389;1256;141787;-73
2024/03/22 09:57:28;;;;;;;12.30;8.50;;;;;;;10.32;80.29;99885.45;217152;1262;139726;-73
2024/03/22 10:02:32;;;;;;;14.30;9.60;;;;;;;10.24;80.16;99889.48;217229;1261;139860;-73
2024/03/22 10:07:35;;;;;;;16.10;9.60;;;;;;;10.22;80.20;99887.91;217350;1261;140262;-73
2024/03/22 10:12:39;;;;;;;20.40;12.90;;;;;;;10.08;79.73;99889.55;217406;1257;139684;-74
2024/03/22 10:17:41;;;;;;;17.20;11.80;;;;;;;10.02;79.92;99884.98;217498;1262;140772;-72
2024/03/22 10:22:49;;;;;;;24.10;14.70;;;;;;;9.97;79.84;99883.41;217235;1257;140872;-72
2024/03/22 10:27:54;;;;;;;23.80;15.00;;;;;;;9.94;79.89;99882.75;217253;1257;141074;-73
2024/03/22 10:32:58;;;;;;;20.20;13.80;;;;;;;9.97;80.05;99887.45;218712;1260;140943;-74
2024/03/22 10:38:03;;;;;;;21.10;14.10;;;;;;;10.04;80.37;99877.95;217474;1256;139954;-73
2024/03/22 10:43:05;;;;;;;26.40;17.70;;;;;;;10.12;80.27;99866.73;217462;1259;293449;-74
2024/03/22 10:48:12;;;;;;;24.10;14.40;;;;;;;10.20;80.29;99862.63;217659;1261;140237;-74
2024/03/22 10:53:20;;;;;;;19.60;13.50;;;;;;;10.35;80.33;99862.83;217320;1256;140562;-74
2024/03/22 10:58:24;;;;;;;17.70;12.20;;;;;;;10.39;80.04;99854.70;217358;1262;140739;-73
2024/03/22 11:03:30;;;;;;;23.90;15.00;;;;;;;10.27;79.61;99850.36;217228;1256;140950;-73
2024/03/22 11:08:37;;;;;;;25.70;16.60;;;;;;;10.22;80.06;99848.27;218179;1257;140880;-73
2024/03/22 11:13:39;;;;;;;22.00;14.60;;;;;;;10.25;80.21;99840.88;217176;1262;141540;-75
2024/03/22 11:18:42;;;;;;;22.20;14.30;;;;;;;10.24;80.02;99826.94;217207;1257;141166;-75
2024/03/22 11:23:46;;;;;;;22.70;15.80;;;;;;;10.23;79.93;99818.38;217671;1262;141058;-72
2024/03/22 11:28:49;;;;;;;22.30;14.60;;;;;;;10.28;79.99;99812.02;217685;1257;141512;-74
2024/03/22 11:33:56;;;;;;;18.80;11.00;;;;;;;10.28;79.86;99810.14;217583;1256;140032;-74
2024/03/22 11:38:58;;;;;;;16.70;11.80;;;;;;;10.36;80.15;99802.09;217423;1256;141212;-74
2024/03/22 11:44:01;;;;;;;12.60;9.40;;;;;;;10.64;80.26;99791.79;217252;1259;140066;-74
2024/03/22 11:49:04;;;;;;;17.80;11.30;;;;;;;10.84;79.64;99793.65;217414;1257;140029;-74
2024/03/22 11:54:07;;;;;;;17.50;10.20;;;;;;;10.97;79.06;99787.04;217146;1259;141710;-74
2024/03/22 11:59:10;;;;;;;14.70;10.60;;;;;;;11.13;78.82;99775.55;217392;1257;140024;-73
2024/03/22 12:04:16;;;;;;;18.10;11.60;;;;;;;11.29;78.53;99771.91;217347;1257;139991;-74
2024/03/22 12:09:20;;;;;;;16.60;11.70;;;;;;;11.41;78.45;99769.52;217034;1257;140256;-73
2024/03/22 12:14:22;;;;;;;18.60;13.20;;;;;;;11.53;77.74;99760.19;217385;1257;140907;-73
2024/03/22 12:19:25;;;;;;;20.20;13.10;;;;;;;11.67;77.34;99757.48;217402;1257;140956;-74
2024/03/22 12:24:27;;;;;;;19.90;12.40;;;;;;;11.73;76.63;99757.64;217372;1259;140173;-72
2024/03/22 12:29:33;;;;;;;14.00;11.40;;;;;;;11.69;76.46;99757.14;217223;1261;141794;-74
2024/03/22 12:34:36;;;;;;;19.50;13.30;;;;;;;11.68;76.06;99754.94;217584;1261;139837;-73
2024/03/22 12:39:39;;;;;;;20.40;15.80;;;;;;;11.68;75.72;99749.65;218403;1260;140290;-74
2024/03/22 12:44:43;;;;;;;17.10;13.50;;;;;;;11.70;75.60;99732.80;217310;1256;140457;-71
2024/03/22 12:49:46;;;;;;;18.00;13.70;;;;;;;11.74;75.29;99717.24;219229;1257;141057;-73
2024/03/22 12:54:50;;;;;;;20.60;14.10;;;;;;;11.72;75.09;99707.96;217777;1260;140717;-72
2024/03/22 12:59:53;;;;;;;19.30;13.50;;;;;;;11.66;74.81;99701.92;219148;1257;141605;-74
2024/03/22 13:04:56;;;;;;;21.00;14.60;;;;;;;11.57;74.58;99696.94;218926;1261;141218;-75
2024/03/22 13:10:01;;;;;;;16.90;13.30;;;;;;;11.52;74.44;99692.25;217355;1262;141384;-74
2024/03/22 13:15:04;;;;;;;18.40;12.80;;;;;;;11.43;74.33;99681.80;217190;1257;139750;-74
2024/03/22 13:20:10;;;;;;;17.40;12.50;;;;;;;11.34;74.34;99680.15;218374;1257;140026;-73
2024/03/22 13:25:13;;;;;;;19.00;14.00;;;;;;;11.27;74.54;99678.80;217547;1257;140325;-73
2024/03/22 13:30:16;;;;;;;19.80;12.80;;;;;;;11.20;74.70;99669.83;217105;1262;140539;-74
2024/03/22 13:35:19;;;;;;;17.20;13.40;;;;;;;11.07;74.52;99673.69;217185;1257;141375;-74
2024/03/22 13:40:23;;;;;;;10.10;8.10;;;;;;;10.95;74.45;99666.08;217547;1261;140794;-75
2024/03/22 13:45:25;;;;;;;24.60;14.00;;;;;;;10.84;74.48;99654.34;217460;1257;139790;-72
2024/03/22 13:50:31;;;;;;;19.60;14.10;;;;;;;10.72;74.89;99651.92;217839;1262;140820;-72
2024/03/22 13:55:35;;;;;;;19.10;13.40;;;;;;;10.59;74.98;99653.06;217545;1261;139978;-71
2024/03/22 14:00:39;;;;;;;19.00;11.90;;;;;;;10.46;75.18;99646.88;217201;1262;140031;-71
2024/03/22 14:05:43;;;;;;;17.80;13.20;;;;;;;10.42;75.71;99645.02;217305;1260;140145;-72
2024/03/22 14:10:47;;;;;;;15.00;10.30;;;;;;;10.38;75.88;99640.22;217394;1262;140146;-71
2024/03/22 14:15:50;;;;;;;21.30;15.00;;;;;;;10.31;76.09;99632.61;217447;1256;140707;-72
2024/03/22 14:20:54;;;;;;;18.30;11.50;;;;;;;10.29;76.87;99629.90;217374;1256;141598;-69
2024/03/22 14:25:57;;;;;;;19.20;12.10;;;;;;;10.28;77.20;99622.80;217440;1261;140313;-71
2024/03/22 14:31:00;;;;;;;19.60;14.10;;;;;;;10.28;77.42;99618.70;217569;1261;141077;-70
2024/03/22 14:36:08;;;;;;;22.40;13.90;;;;;;;10.29;77.73;99606.09;217482;1262;140121;-70
2024/03/22 14:41:12;;;;;;;19.10;12.20;;;;;;;10.31;77.82;99592.92;217484;1262;142503;-70
2024/03/22 14:46:15;;;;;;;20.00;14.70;;;;;;;10.25;77.86;99576.91;217704;1257;140928;-68
2024/03/22 14:51:19;;;;;;;15.10;10.80;;;;;;;10.19;78.21;99560.64;217521;1262;140101;-72
2024/03/22 14:56:23;;;;;;;19.70;11.90;;;;;;;10.13;78.47;99546.23;217290;1262;140264;-72
2024/03/22 15:01:26;;;;;;;18.70;13.30;;;;;;;10.16;78.74;99531.05;219665;1260;140139;-72
2024/03/22 15:06:34;;;;;;;16.60;11.40;;;;;;;10.22;78.76;99522.93;217825;1260;224571;-72
2024/03/22 15:11:37;;;;;;;24.80;14.10;;;;;;;10.31;78.97;99515.55;218277;1262;141338;-71
2024/03/22 15:16:44;;;;;;;21.00;12.20;;;;;;;10.40;79.05;99507.62;217194;1262;139992;-72
2024/03/22 15:21:47;;;;;;;16.40;11.30;;;;;;;10.48;79.02;99499.34;217367;1262;139807;-72
2024/03/22 15:26:50;;;;;;;22.40;13.40;;;;;;;10.52;79.00;99489.91;217112;1261;140966;-72
2024/03/22 15:31:53;;;;;;;17.80;12.70;;;;;;;10.54;78.97;99484.61;217334;1263;150817;-71
2024/03/22 15:36:56;;;;;;;19.80;10.00;;;;;;;10.57;78.60;99486.06;217175;1258;140891;-72
2024/03/22 15:42:00;;;;;;;17.40;11.30;;;;;;;10.60;78.63;99480.63;217335;1262;140211;-71
2024/03/22 15:47:03;;;;;;;17.70;12.10;;;;;;;10.56;78.34;99474.22;217229;1258;141336;-70
2024/03/22 15:52:05;;;;;;;16.10;12.10;;;;;;;10.52;78.14;99477.18;217267;1257;141706;-70
2024/03/22 15:57:08;;;;;;;17.60;11.70;;;;;;;10.50;78.11;99474.31;217315;1256;140368;-72
2024/03/22 16:02:12;;;;;;;20.20;11.90;;;;;;;10.50;77.94;99474.16;217368;1263;141057;-73
2024/03/22 16:07:14;;;;;;;18.50;11.40;;;;;;;10.44;77.76;99465.89;217662;1263;141161;-72
2024/03/22 16:12:18;;;;;;;19.10;11.80;;;;;;;10.37;77.55;99455.13;217269;1263;139949;-72
2024/03/22 16:17:21;;;;;;;22.10;13.50;;;;;;;10.29;77.69;99441.19;218717;1258;139556;-70
2024/03/22 16:22:24;;;;;;;17.00;10.80;;;;;;;10.27;77.78;99438.54;217409;1261;142264;-72
2024/03/22 16:27:27;;;;;;;21.10;12.80;;;;;;;10.25;77.52;99433.39;217693;1258;140292;-72
2024/03/22 16:32:29;;;;;;;21.50;12.80;;;;;;;10.23;77.46;99429.84;218419;1258;139988;-71
2024/03/22 16:37:33;;;;;;;18.30;11.10;;;;;;;10.22;77.50;99433.11;217484;1260;140047;-70
2024/03/22 16:42:47;;;;;;;19.00;12.80;;;;;;;10.19;77.39;99427.35;217535;1261;140408;-70
2024/03/22 16:47:51;;;;;;;18.80;11.90;;;;;;;10.15;77.29;99418.04;218257;1258;141516;-72
2024/03/22 16:52:54;;;;;;;23.70;14.40;;;;;;;10.11;77.35;99418.40;217735;1257;140296;-71
2024/03/22 16:58:00;;;;;;;19.40;12.30;;;;;;;10.09;77.42;99418.21;217457;1257;140549;-74
2024/03/22 17:03:03;;;;;;;20.50;12.80;;;;;;;10.06;77.47;99415.25;217608;1257;140578;-72
2024/03/22 17:08:06;;;;;;;17.40;10.90;;;;;;;10.04;77.63;99401.73;218121;1257;140110;-73
2024/03/22 17:13:08;;;;;;;21.20;11.40;;;;;;;10.01;77.52;99401.34;217398;1258;140103;-72
2024/03/22 17:18:11;;;;;;;19.30;12.20;;;;;;;10.01;77.42;99402.15;217555;1257;140296;-72
2024/03/22 17:23:14;;;;;;;19.30;12.10;;;;;;;9.99;77.45;99399.13;217493;1258;139914;-72
2024/03/22 17:28:17;;;;;;;25.50;11.80;;;;;;;9.97;77.47;99399.08;217572;1260;140226;-72
2024/03/22 17:33:19;;;;;;;15.40;11.10;;;;;;;9.95;77.41;99394.36;217755;1257;139603;-72
2024/03/22 17:38:22;;;;;;;16.60;10.70;;;;;;;9.93;77.36;99388.20;217463;1257;140599;-70
2024/03/22 17:43:25;;;;;;;15.60;10.80;;;;;;;9.93;77.48;99389.90;217593;1260;140931;-70
2024/03/22 17:48:27;;;;;;;16.80;10.30;;;;;;;9.92;77.58;99388.88;217522;1260;140678;-68
2024/03/22 17:53:30;;;;;;;17.30;10.40;;;;;;;9.94;77.65;99385.50;217669;1258;140631;-69
2024/03/22 17:58:33;;;;;;;16.30;10.90;;;;;;;9.94;77.61;99388.39;217883;1257;140844;-73
2024/03/22 18:03:36;;;;;;;20.80;18.70;;;;;;;9.94;77.53;99377.14;217381;1257;140503;-71
2024/03/22 18:08:39;;;;;;;21.30;13.30;;;;;;;9.94;77.57;99380.25;217482;1258;140466;-70
2024/03/22 18:13:45;;;;;;;17.30;12.20;;;;;;;9.94;77.63;99377.67;218040;1257;142530;-69
2024/03/22 18:18:52;;;;;;;15.80;11.80;;;;;;;9.93;77.59;99369.98;217439;1257;140386;-70
2024/03/22 18:23:56;;;;;;;15.80;10.50;;;;;;;9.94;77.55;99367.63;217566;1257;140893;-72
2024/03/22 18:29:00;;;;;;;16.50;9.60;;;;;;;9.94;77.55;99364.10;217659;1258;140252;-72
2024/03/22 18:34:05;;;;;;;17.60;9.90;;;;;;;9.93;77.60;99357.05;217460;1260;140075;-71
2024/03/22 18:39:09;;;;;;;14.00;9.10;;;;;;;9.91;77.53;99354.02;217690;1257;140079;-70
2024/03/22 18:44:11;;;;;;;18.50;10.60;;;;;;;9.88;77.60;99350.67;217584;1257;141095;-69
2024/03/22 18:49:15;;;;;;;14.60;8.80;;;;;;;9.87;77.71;99346.81;217487;1258;140953;-70
2024/03/22 18:54:18;;;;;;;15.40;10.00;;;;;;;9.85;77.83;99343.21;218394;1258;140622;-73
2024/03/22 18:59:21;;;;;;;15.50;11.00;;;;;;;9.79;77.84;99330.13;217823;1257;141116;-72
2024/03/22 19:04:32;;;;;;;17.40;10.80;;;;;;;9.75;77.87;99326.94;218439;1257;140332;-74
2024/03/22 19:09:39;;;;;;;22.40;11.90;;;;;;;9.76;77.96;99320.25;217573;1259;140500;-72
2024/03/22 19:14:46;;;;;;;19.00;10.80;;;;;;;9.78;77.90;99318.14;217261;1257;139780;-72
2024/03/22 19:19:52;;;;;;;19.10;10.30;;;;;;;9.77;77.75;99319.03;217494;1260;140104;-71
2024/03/22 19:24:55;;;;;;;16.80;10.80;;;;;;;9.77;77.70;99316.95;217375;1258;139713;-75
2024/03/22 19:30:07;;;;;;;15.40;9.60;;;;;;;9.76;77.64;99314.59;217330;1257;140666;-71
2024/03/22 19:35:13;;;;;;;18.10;10.20;;;;;;;9.75;77.65;99307.23;217408;1261;140434;-74
2024/03/22 19:40:21;;;;;;;17.30;11.50;;;;;;;9.76;77.77;99309.16;217802;1257;142704;-74
2024/03/22 19:45:30;;;;;;;18.30;11.60;;;;;;;9.76;77.75;99308.80;217510;1260;144014;-73
2024/03/22 19:50:33;;;;;;;18.90;13.00;;;;;;;9.75;77.91;99309.67;217417;1258;140489;-73
2024/03/22 19:55:36;;;;;;;18.90;11.70;;;;;;;9.72;78.01;99303.09;217690;1260;139732;-73
2024/03/22 20:00:43;;;;;;;17.00;12.00;;;;;;;9.67;78.15;99301.48;217501;1260;140296;-73
2024/03/22 20:05:48;;;;;;;23.40;13.00;;;;;;;9.63;78.16;99297.43;217142;1257;140441;-75
2024/03/22 20:10:57;;;;;;;18.20;10.60;;;;;;;9.62;78.26;99300.38;217391;1261;140662;-73
2024/03/22 20:16:05;;;;;;;17.20;11.90;;;;;;;9.60;78.38;99302.21;217504;1260;141527;-72
2024/03/22 20:21:20;;;;;;;13.30;10.10;;;;;;;9.59;78.29;99300.11;218358;1256;140259;-75
2024/03/22 20:26:24;;;;;;;17.80;11.30;;;;;;;9.59;78.39;99296.30;217848;1256;140914;-72
2024/03/22 20:31:30;;;;;;;18.10;11.60;;;;;;;9.59;78.28;99295.02;218624;1256;140457;-72
2024/03/22 20:36:33;;;;;;;20.30;11.90;;;;;;;9.59;78.31;99283.73;217418;1257;139928;-71
2024/03/22 20:41:36;;;;;;;16.20;11.00;;;;;;;9.60;78.20;99280.02;217963;1260;140729;-70
2024/03/22 20:46:39;;;;;;;14.60;10.90;;;;;;;9.60;78.14;99278.42;217412;1259;140557;-73
2024/03/22 20:51:42;;;;;;;21.50;12.50;;;;;;;9.61;78.06;99277.27;217330;1259;140854;-71
2024/03/22 20:56:46;;;;;;;15.50;9.60;;;;;;;9.63;78.07;99272.83;217405;1260;159849;-71
2024/03/22 21:01:50;;;;;;;16.40;11.60;;;;;;;9.63;78.10;99268.73;217613;1258;140677;-69
2024/03/22 21:06:52;;;;;;;21.30;13.10;;;;;;;9.62;78.25;99262.45;217735;1256;140238;-73
2024/03/22 21:11:55;;;;;;;20.10;12.00;;;;;;;9.61;78.24;99254.45;217420;1257;231492;-72
2024/03/22 21:16:58;;;;;;;20.90;13.60;;;;;;;9.62;78.37;99246.05;217245;1257;140258;-72
2024/03/22 21:22:03;;;;;;;19.90;13.50;;;;;;;9.60;78.49;99238.50;217511;1257;141336;-71
2024/03/22 21:27:06;;;;;;;18.20;12.50;;;;;;;9.61;78.50;99235.39;217639;1261;142025;-71
2024/03/22 21:32:09;;;;;;;18.20;13.00;;;;;;;9.59;78.62;99232.48;217405;1261;141479;-71
2024/03/22 21:37:12;;;;;;;24.20;14.40;;;;;;;9.57;78.69;99231.75;217648;1260;141401;-71
2024/03/22 21:42:15;;;;;;;21.00;12.50;;;;;;;9.56;78.83;99224.65;217360;1257;140386;-70
2024/03/22 21:47:19;;;;;;;21.00;13.90;;;;;;;9.55;78.93;99213.50;217453;1256;140645;-70
2024/03/22 21:52:22;;;;;;;30.00;13.70;;;;;;;9.52;79.10;99213.40;217530;1257;140161;-73
2024/03/22 21:57:25;;;;;;;22.70;14.10;;;;;;;9.51;79.15;99216.25;217663;1257;141604;-72
2024/03/22 22:02:28;;;;;;;23.20;14.20;;;;;;;9.48;79.29;99209.04;217626;1259;140413;-71
2024/03/22 22:07:31;;;;;;;24.20;13.80;;;;;;;9.45;79.46;99200.70;217727;1260;141242;-72
2024/03/22 22:12:34;;;;;;;23.70;14.50;;;;;;;9.42;79.84;99196.23;217229;1261;141358;-70
2024/03/22 22:17:37;;;;;;;28.00;15.70;;;;;;;9.38;80.12;99197.43;217187;1262;140285;-70
2024/03/22 22:22:40;;;;;;;20.40;13.20;;;;;;;9.35;80.45;99200.73;217466;1262;140069;-71
2024/03/22 22:27:44;;;;;;;21.50;13.90;;;;;;;9.29;80.40;99196.04;218475;1257;160644;-71
2024/03/22 22:32:47;;;;;;;17.90;12.20;;;;;;;9.24;80.80;99194.77;217899;1257;140978;-75
2024/03/22 22:37:52;;;;;;;24.80;14.30;;;;;;;9.20;81.13;99189.91;217764;1258;140014;-73
2024/03/22 22:42:56;;;;;;;19.20;12.30;;;;;;;9.17;81.47;99186.38;217436;1259;140190;-71
2024/03/22 22:47:58;;;;;;;22.80;12.30;;;;;;;9.15;81.69;99180.02;217436;1262;317409;-70
2024/03/22 22:53:01;;;;;;;21.30;13.20;;;;;;;9.10;82.10;99177.59;217660;1256;140074;-71
2024/03/22 22:58:04;;;;;;;18.80;13.20;;;;;;;9.06;82.30;99176.71;217740;1258;139968;-73